sensor_id;sensor_type;location;lat;lon;timestamp;temperature;humidity
13412;DHT22;6777;51.474;7.218;2022-08-07T00:02:05;22.00;43.20
13412;DHT22;6777;51.474;7.218;2022-08-07T00:04:32;21.90;43.30
13412;DHT22;6777;51.474;7.218;2022-08-07T00:06:59;21.90;43.30
13412;DHT22;6777;51.474;7.218;2022-08-07T00:09:26;21.90;43.40
13412;DHT22;6777;51.474;7.218;2022-08-07T00:11:53;21.90;43.50
13412;DHT22;6777;51.474;7.218;2022-08-07T00:14:20;21.90;43.60
13412;DHT22;6777;51.474;7.218;2022-08-07T00:16:48;21.80;43.60
13412;DHT22;6777;51.474;7.218;2022-08-07T00:19:16;21.80;43.70
13412;DHT22;6777;51.474;7.218;2022-08-07T00:21:44;21.80;43.90
13412;DHT22;6777;51.474;7.218;2022-08-07T00:24:11;21.80;43.90
13412;DHT22;6777;51.474;7.218;2022-08-07T00:26:38;21.80;44.00
13412;DHT22;6777;51.474;7.218;2022-08-07T00:29:05;21.70;44.00
13412;DHT22;6777;51.474;7.218;2022-08-07T00:31:32;21.70;44.10
13412;DHT22;6777;51.474;7.218;2022-08-07T00:33:59;21.70;44.20
13412;DHT22;6777;51.474;7.218;2022-08-07T00:36:27;21.70;44.20
13412;DHT22;6777;51.474;7.218;2022-08-07T00:38:54;21.70;44.40
13412;DHT22;6777;51.474;7.218;2022-08-07T00:41:25;21.60;45.00
13412;DHT22;6777;51.474;7.218;2022-08-07T00:43:53;21.60;44.70
13412;DHT22;6777;51.474;7.218;2022-08-07T00:46:20;21.60;44.50
13412;DHT22;6777;51.474;7.218;2022-08-07T00:48:47;21.50;44.50
13412;DHT22;6777;51.474;7.218;2022-08-07T00:51:14;21.60;44.60
13412;DHT22;6777;51.474;7.218;2022-08-07T00:53:43;21.50;44.60
13412;DHT22;6777;51.474;7.218;2022-08-07T00:56:10;21.50;44.80
13412;DHT22;6777;51.474;7.218;2022-08-07T00:58:41;21.50;44.70
13412;DHT22;6777;51.474;7.218;2022-08-07T01:01:09;21.50;44.90
13412;DHT22;6777;51.474;7.218;2022-08-07T01:03:36;21.50;44.90
13412;DHT22;6777;51.474;7.218;2022-08-07T01:06:04;21.40;45.00
13412;DHT22;6777;51.474;7.218;2022-08-07T01:08:31;21.40;45.10
13412;DHT22;6777;51.474;7.218;2022-08-07T01:11:00;21.40;45.20
13412;DHT22;6777;51.474;7.218;2022-08-07T01:13:27;21.30;45.30
13412;DHT22;6777;51.474;7.218;2022-08-07T01:15:56;21.30;45.30
13412;DHT22;6777;51.474;7.218;2022-08-07T01:18:25;21.30;45.60
13412;DHT22;6777;51.474;7.218;2022-08-07T01:21:01;21.30;45.50
13412;DHT22;6777;51.474;7.218;2022-08-07T01:23:31;21.20;45.70
13412;DHT22;6777;51.474;7.218;2022-08-07T01:25:59;21.20;45.70
13412;DHT22;6777;51.474;7.218;2022-08-07T01:28:27;21.20;45.80
13412;DHT22;6777;51.474;7.218;2022-08-07T01:30:55;21.10;45.80
13412;DHT22;6777;51.474;7.218;2022-08-07T01:33:23;21.10;45.90
13412;DHT22;6777;51.474;7.218;2022-08-07T01:35:50;21.10;46.00
13412;DHT22;6777;51.474;7.218;2022-08-07T01:38:19;21.10;46.00
13412;DHT22;6777;51.474;7.218;2022-08-07T01:40:48;21.10;46.30
13412;DHT22;6777;51.474;7.218;2022-08-07T01:43:16;21.00;46.20
13412;DHT22;6777;51.474;7.218;2022-08-07T01:45:43;21.00;46.20
13412;DHT22;6777;51.474;7.218;2022-08-07T01:48:10;21.00;46.30
13412;DHT22;6777;51.474;7.218;2022-08-07T01:50:38;21.00;46.30
13412;DHT22;6777;51.474;7.218;2022-08-07T01:53:06;21.00;46.40
13412;DHT22;6777;51.474;7.218;2022-08-07T01:55:43;20.90;46.40
13412;DHT22;6777;51.474;7.218;2022-08-07T01:58:14;20.90;46.80
13412;DHT22;6777;51.474;7.218;2022-08-07T02:00:50;20.90;46.50
13412;DHT22;6777;51.474;7.218;2022-08-07T02:03:22;20.90;46.70
13412;DHT22;6777;51.474;7.218;2022-08-07T02:05:52;20.90;46.60
13412;DHT22;6777;51.474;7.218;2022-08-07T02:08:23;20.80;46.60
13412;DHT22;6777;51.474;7.218;2022-08-07T02:10:54;20.80;46.60
13412;DHT22;6777;51.474;7.218;2022-08-07T02:13:26;20.80;46.70
13412;DHT22;6777;51.474;7.218;2022-08-07T02:15:55;20.80;46.70
13412;DHT22;6777;51.474;7.218;2022-08-07T02:18:26;20.70;46.70
13412;DHT22;6777;51.474;7.218;2022-08-07T02:20:55;20.70;46.80
13412;DHT22;6777;51.474;7.218;2022-08-07T02:23:24;20.70;46.70
13412;DHT22;6777;51.474;7.218;2022-08-07T02:25:54;20.70;46.80
13412;DHT22;6777;51.474;7.218;2022-08-07T02:28:26;20.70;46.90
13412;DHT22;6777;51.474;7.218;2022-08-07T02:30:55;20.70;46.90
13412;DHT22;6777;51.474;7.218;2022-08-07T02:33:24;20.60;46.80
13412;DHT22;6777;51.474;7.218;2022-08-07T02:35:53;20.60;46.90
13412;DHT22;6777;51.474;7.218;2022-08-07T02:38:24;20.60;46.90
13412;DHT22;6777;51.474;7.218;2022-08-07T02:40:54;20.60;47.10
13412;DHT22;6777;51.474;7.218;2022-08-07T02:43:22;20.60;47.10
13412;DHT22;6777;51.474;7.218;2022-08-07T02:45:50;20.50;47.00
13412;DHT22;6777;51.474;7.218;2022-08-07T02:48:19;20.50;47.00
13412;DHT22;6777;51.474;7.218;2022-08-07T02:50:49;20.40;47.00
13412;DHT22;6777;51.474;7.218;2022-08-07T02:53:21;20.40;47.10
13412;DHT22;6777;51.474;7.218;2022-08-07T02:55:51;20.40;47.30
13412;DHT22;6777;51.474;7.218;2022-08-07T02:58:22;20.40;47.20
13412;DHT22;6777;51.474;7.218;2022-08-07T03:00:51;20.40;47.20
13412;DHT22;6777;51.474;7.218;2022-08-07T03:03:21;20.30;47.20
13412;DHT22;6777;51.474;7.218;2022-08-07T03:05:50;20.30;47.20
13412;DHT22;6777;51.474;7.218;2022-08-07T03:08:19;20.30;47.30
13412;DHT22;6777;51.474;7.218;2022-08-07T03:10:47;20.30;47.30
13412;DHT22;6777;51.474;7.218;2022-08-07T03:13:17;20.20;47.30
13412;DHT22;6777;51.474;7.218;2022-08-07T03:15:45;20.20;47.40
13412;DHT22;6777;51.474;7.218;2022-08-07T03:18:13;20.20;48.10
13412;DHT22;6777;51.474;7.218;2022-08-07T03:20:40;20.20;47.40
13412;DHT22;6777;51.474;7.218;2022-08-07T03:23:08;20.20;47.40
13412;DHT22;6777;51.474;7.218;2022-08-07T03:25:38;20.10;47.40
13412;DHT22;6777;51.474;7.218;2022-08-07T03:28:09;20.10;47.50
13412;DHT22;6777;51.474;7.218;2022-08-07T03:30:40;20.10;48.00
13412;DHT22;6777;51.474;7.218;2022-08-07T03:33:08;20.10;47.60
13412;DHT22;6777;51.474;7.218;2022-08-07T03:35:38;20.10;47.60
13412;DHT22;6777;51.474;7.218;2022-08-07T03:38:07;20.00;47.70
13412;DHT22;6777;51.474;7.218;2022-08-07T03:40:35;20.00;47.60
13412;DHT22;6777;51.474;7.218;2022-08-07T03:43:03;20.00;47.60
13412;DHT22;6777;51.474;7.218;2022-08-07T03:45:30;20.00;47.70
13412;DHT22;6777;51.474;7.218;2022-08-07T03:47:59;20.00;47.80
13412;DHT22;6777;51.474;7.218;2022-08-07T03:50:27;20.00;48.00
13412;DHT22;6777;51.474;7.218;2022-08-07T03:52:56;19.90;47.90
13412;DHT22;6777;51.474;7.218;2022-08-07T03:55:25;19.90;47.90
13412;DHT22;6777;51.474;7.218;2022-08-07T03:57:53;19.90;47.90
13412;DHT22;6777;51.474;7.218;2022-08-07T04:00:20;19.90;47.90
13412;DHT22;6777;51.474;7.218;2022-08-07T04:02:48;19.90;47.90
13412;DHT22;6777;51.474;7.218;2022-08-07T04:05:19;19.90;47.90
13412;DHT22;6777;51.474;7.218;2022-08-07T04:07:46;19.90;48.10
13412;DHT22;6777;51.474;7.218;2022-08-07T04:10:14;19.90;47.90
13412;DHT22;6777;51.474;7.218;2022-08-07T04:12:41;19.90;48.00
13412;DHT22;6777;51.474;7.218;2022-08-07T04:15:09;19.90;48.00
13412;DHT22;6777;51.474;7.218;2022-08-07T04:17:37;19.90;48.10
13412;DHT22;6777;51.474;7.218;2022-08-07T04:20:08;17.50;46.90
13412;DHT22;6777;51.474;7.218;2022-08-07T04:22:39;19.90;48.30
13412;DHT22;6777;51.474;7.218;2022-08-07T04:25:07;19.90;48.20
13412;DHT22;6777;51.474;7.218;2022-08-07T04:27:35;19.80;48.20
13412;DHT22;6777;51.474;7.218;2022-08-07T04:30:03;19.80;48.10
13412;DHT22;6777;51.474;7.218;2022-08-07T04:32:33;19.80;48.20
13412;DHT22;6777;51.474;7.218;2022-08-07T04:35:01;19.80;48.20
13412;DHT22;6777;51.474;7.218;2022-08-07T04:37:30;19.80;48.20
13412;DHT22;6777;51.474;7.218;2022-08-07T04:39:59;19.80;48.30
13412;DHT22;6777;51.474;7.218;2022-08-07T04:42:26;19.80;48.40
13412;DHT22;6777;51.474;7.218;2022-08-07T04:44:57;19.80;48.20
13412;DHT22;6777;51.474;7.218;2022-08-07T04:47:32;19.80;48.30
13412;DHT22;6777;51.474;7.218;2022-08-07T04:50:04;19.80;48.50
13412;DHT22;6777;51.474;7.218;2022-08-07T04:52:40;19.80;48.50
13412;DHT22;6777;51.474;7.218;2022-08-07T04:55:15;17.20;47.30
13412;DHT22;6777;51.474;7.218;2022-08-07T04:57:50;19.80;48.50
13412;DHT22;6777;51.474;7.218;2022-08-07T05:00:22;19.80;48.50
13412;DHT22;6777;51.474;7.218;2022-08-07T05:02:57;19.80;48.50
13412;DHT22;6777;51.474;7.218;2022-08-07T05:05:30;19.80;48.60
13412;DHT22;6777;51.474;7.218;2022-08-07T05:08:07;19.80;48.50
13412;DHT22;6777;51.474;7.218;2022-08-07T05:10:44;19.90;48.60
13412;DHT22;6777;51.474;7.218;2022-08-07T05:13:16;19.80;48.60
13412;DHT22;6777;51.474;7.218;2022-08-07T05:15:49;19.80;48.60
13412;DHT22;6777;51.474;7.218;2022-08-07T05:18:19;19.90;48.70
13412;DHT22;6777;51.474;7.218;2022-08-07T05:20:50;19.90;48.60
13412;DHT22;6777;51.474;7.218;2022-08-07T05:23:21;19.90;48.60
13412;DHT22;6777;51.474;7.218;2022-08-07T05:25:53;19.90;48.60
13412;DHT22;6777;51.474;7.218;2022-08-07T05:28:20;19.90;48.60
13412;DHT22;6777;51.474;7.218;2022-08-07T05:30:50;19.90;48.60
13412;DHT22;6777;51.474;7.218;2022-08-07T05:33:18;19.90;48.60
13412;DHT22;6777;51.474;7.218;2022-08-07T05:35:46;20.00;48.60
13412;DHT22;6777;51.474;7.218;2022-08-07T05:38:15;20.00;48.70
13412;DHT22;6777;51.474;7.218;2022-08-07T05:40:43;20.00;48.60
13412;DHT22;6777;51.474;7.218;2022-08-07T05:43:11;20.00;48.60
13412;DHT22;6777;51.474;7.218;2022-08-07T05:45:39;20.10;48.70
13412;DHT22;6777;51.474;7.218;2022-08-07T05:48:07;20.10;48.60
13412;DHT22;6777;51.474;7.218;2022-08-07T05:50:34;20.20;48.60
13412;DHT22;6777;51.474;7.218;2022-08-07T05:53:02;20.20;48.60
13412;DHT22;6777;51.474;7.218;2022-08-07T05:55:32;20.20;48.50
13412;DHT22;6777;51.474;7.218;2022-08-07T05:58:01;20.20;48.50
13412;DHT22;6777;51.474;7.218;2022-08-07T06:00:32;20.30;48.50
13412;DHT22;6777;51.474;7.218;2022-08-07T06:03:02;20.30;48.50
13412;DHT22;6777;51.474;7.218;2022-08-07T06:05:32;20.40;48.50
13412;DHT22;6777;51.474;7.218;2022-08-07T06:08:01;20.40;48.50
13412;DHT22;6777;51.474;7.218;2022-08-07T06:10:28;20.50;48.60
13412;DHT22;6777;51.474;7.218;2022-08-07T06:12:56;20.50;48.40
13412;DHT22;6777;51.474;7.218;2022-08-07T06:15:25;20.50;48.40
13412;DHT22;6777;51.474;7.218;2022-08-07T06:17:56;20.60;48.30
13412;DHT22;6777;51.474;7.218;2022-08-07T06:20:24;20.70;48.40
13412;DHT22;6777;51.474;7.218;2022-08-07T06:22:52;20.70;48.30
13412;DHT22;6777;51.474;7.218;2022-08-07T06:25:19;20.80;48.30
13412;DHT22;6777;51.474;7.218;2022-08-07T06:27:46;20.80;48.30
13412;DHT22;6777;51.474;7.218;2022-08-07T06:30:13;20.80;48.30
13412;DHT22;6777;51.474;7.218;2022-08-07T06:32:41;20.90;48.10
13412;DHT22;6777;51.474;7.218;2022-08-07T06:35:09;20.90;48.00
13412;DHT22;6777;51.474;7.218;2022-08-07T06:37:36;21.00;48.10
13412;DHT22;6777;51.474;7.218;2022-08-07T06:40:04;21.00;47.90
13412;DHT22;6777;51.474;7.218;2022-08-07T06:42:33;21.10;47.90
13412;DHT22;6777;51.474;7.218;2022-08-07T06:45:03;21.20;48.00
13412;DHT22;6777;51.474;7.218;2022-08-07T06:47:32;21.20;48.00
13412;DHT22;6777;51.474;7.218;2022-08-07T06:50:00;21.20;48.00
13412;DHT22;6777;51.474;7.218;2022-08-07T06:52:31;21.30;47.90
13412;DHT22;6777;51.474;7.218;2022-08-07T06:55:03;21.30;47.90
13412;DHT22;6777;51.474;7.218;2022-08-07T06:57:32;21.40;47.90
13412;DHT22;6777;51.474;7.218;2022-08-07T07:00:00;21.40;47.70
13412;DHT22;6777;51.474;7.218;2022-08-07T07:02:28;21.50;47.70
13412;DHT22;6777;51.474;7.218;2022-08-07T07:04:56;21.60;47.60
13412;DHT22;6777;51.474;7.218;2022-08-07T07:07:23;21.60;47.50
13412;DHT22;6777;51.474;7.218;2022-08-07T07:09:52;21.60;47.40
13412;DHT22;6777;51.474;7.218;2022-08-07T07:12:25;21.70;47.40
13412;DHT22;6777;51.474;7.218;2022-08-07T07:15:00;21.80;47.30
13412;DHT22;6777;51.474;7.218;2022-08-07T07:17:34;21.80;47.30
13412;DHT22;6777;51.474;7.218;2022-08-07T07:20:09;21.90;47.30
13412;DHT22;6777;51.474;7.218;2022-08-07T07:22:40;21.90;47.30
13412;DHT22;6777;51.474;7.218;2022-08-07T07:25:12;22.00;47.30
13412;DHT22;6777;51.474;7.218;2022-08-07T07:27:45;22.10;47.30
13412;DHT22;6777;51.474;7.218;2022-08-07T07:30:14;22.10;47.10
13412;DHT22;6777;51.474;7.218;2022-08-07T07:32:42;22.20;47.10
13412;DHT22;6777;51.474;7.218;2022-08-07T07:35:11;22.20;46.80
13412;DHT22;6777;51.474;7.218;2022-08-07T07:37:40;22.30;46.90
13412;DHT22;6777;51.474;7.218;2022-08-07T07:40:14;22.30;47.10
13412;DHT22;6777;51.474;7.218;2022-08-07T07:42:45;22.40;46.70
13412;DHT22;6777;51.474;7.218;2022-08-07T07:45:15;22.50;46.70
13412;DHT22;6777;51.474;7.218;2022-08-07T07:47:45;22.60;46.60
13412;DHT22;6777;51.474;7.218;2022-08-07T07:50:14;22.60;46.50
13412;DHT22;6777;51.474;7.218;2022-08-07T07:52:43;22.70;46.50
13412;DHT22;6777;51.474;7.218;2022-08-07T07:55:13;22.80;46.60
13412;DHT22;6777;51.474;7.218;2022-08-07T07:57:44;22.80;46.30
13412;DHT22;6777;51.474;7.218;2022-08-07T08:00:13;22.90;46.40
13412;DHT22;6777;51.474;7.218;2022-08-07T08:02:42;23.00;46.20
13412;DHT22;6777;51.474;7.218;2022-08-07T08:05:11;23.00;46.90
13412;DHT22;6777;51.474;7.218;2022-08-07T08:07:39;23.10;46.10
13412;DHT22;6777;51.474;7.218;2022-08-07T08:10:09;23.20;45.80
13412;DHT22;6777;51.474;7.218;2022-08-07T08:12:38;23.30;45.50
13412;DHT22;6777;51.474;7.218;2022-08-07T08:15:06;23.30;45.50
13412;DHT22;6777;51.474;7.218;2022-08-07T08:17:34;23.40;45.40
13412;DHT22;6777;51.474;7.218;2022-08-07T08:20:04;23.40;45.00
13412;DHT22;6777;51.474;7.218;2022-08-07T08:22:33;23.60;44.90
13412;DHT22;6777;51.474;7.218;2022-08-07T08:25:22;23.70;45.20
13412;DHT22;6777;51.474;7.218;2022-08-07T08:28:14;23.70;45.10
13412;DHT22;6777;51.474;7.218;2022-08-07T08:30:44;23.80;45.00
13412;DHT22;6777;51.474;7.218;2022-08-07T08:33:14;23.80;44.30
13412;DHT22;6777;51.474;7.218;2022-08-07T08:35:47;24.00;43.80
13412;DHT22;6777;51.474;7.218;2022-08-07T08:38:17;24.00;43.70
13412;DHT22;6777;51.474;7.218;2022-08-07T08:40:54;24.00;43.70
13412;DHT22;6777;51.474;7.218;2022-08-07T08:43:33;24.10;42.90
13412;DHT22;6777;51.474;7.218;2022-08-07T08:46:06;24.20;42.40
13412;DHT22;6777;51.474;7.218;2022-08-07T08:48:39;24.30;42.60
13412;DHT22;6777;51.474;7.218;2022-08-07T08:51:16;24.30;42.50
13412;DHT22;6777;51.474;7.218;2022-08-07T08:53:48;24.40;41.80
13412;DHT22;6777;51.474;7.218;2022-08-07T08:56:23;24.50;41.40
13412;DHT22;6777;51.474;7.218;2022-08-07T08:58:58;24.50;41.10
13412;DHT22;6777;51.474;7.218;2022-08-07T09:01:33;24.50;40.70
13412;DHT22;6777;51.474;7.218;2022-08-07T09:04:13;24.60;40.80
13412;DHT22;6777;51.474;7.218;2022-08-07T09:06:51;24.60;40.60
13412;DHT22;6777;51.474;7.218;2022-08-07T09:09:42;24.60;40.00
13412;DHT22;6777;51.474;7.218;2022-08-07T09:12:22;24.70;39.30
13412;DHT22;6777;51.474;7.218;2022-08-07T09:15:09;24.80;40.10
13412;DHT22;6777;51.474;7.218;2022-08-07T09:17:47;24.80;40.10
13412;DHT22;6777;51.474;7.218;2022-08-07T09:20:26;24.90;39.80
13412;DHT22;6777;51.474;7.218;2022-08-07T09:23:03;24.90;39.30
13412;DHT22;6777;51.474;7.218;2022-08-07T09:25:38;25.00;39.20
13412;DHT22;6777;51.474;7.218;2022-08-07T09:28:14;25.00;39.30
13412;DHT22;6777;51.474;7.218;2022-08-07T09:30:57;25.00;39.10
13412;DHT22;6777;51.474;7.218;2022-08-07T09:33:46;25.00;38.50
13412;DHT22;6777;51.474;7.218;2022-08-07T09:36:27;25.10;38.40
13412;DHT22;6777;51.474;7.218;2022-08-07T09:39:02;25.20;37.60
13412;DHT22;6777;51.474;7.218;2022-08-07T09:41:40;25.20;38.40
13412;DHT22;6777;51.474;7.218;2022-08-07T09:44:22;25.30;38.60
13412;DHT22;6777;51.474;7.218;2022-08-07T09:47:08;25.20;38.30
13412;DHT22;6777;51.474;7.218;2022-08-07T09:49:54;25.40;38.10
13412;DHT22;6777;51.474;7.218;2022-08-07T09:52:29;25.30;37.40
13412;DHT22;6777;51.474;7.218;2022-08-07T09:55:06;25.30;38.00
13412;DHT22;6777;51.474;7.218;2022-08-07T10:01:07;25.40;37.20
13412;DHT22;6777;51.474;7.218;2022-08-07T10:04:05;25.50;37.10
13412;DHT22;6777;51.474;7.218;2022-08-07T10:06:52;25.50;37.20
13412;DHT22;6777;51.474;7.218;2022-08-07T10:09:45;25.60;37.30
13412;DHT22;6777;51.474;7.218;2022-08-07T10:12:39;25.60;36.90
13412;DHT22;6777;51.474;7.218;2022-08-07T10:15:32;25.60;36.80
13412;DHT22;6777;51.474;7.218;2022-08-07T10:18:26;25.60;36.90
13412;DHT22;6777;51.474;7.218;2022-08-07T10:21:20;25.70;36.40
13412;DHT22;6777;51.474;7.218;2022-08-07T10:24:03;25.70;36.70
13412;DHT22;6777;51.474;7.218;2022-08-07T10:26:52;25.70;37.00
13412;DHT22;6777;51.474;7.218;2022-08-07T10:29:46;25.80;36.50
13412;DHT22;6777;51.474;7.218;2022-08-07T10:32:33;25.80;36.50
13412;DHT22;6777;51.474;7.218;2022-08-07T10:35:14;25.90;36.70
13412;DHT22;6777;51.474;7.218;2022-08-07T10:37:58;25.90;36.50
13412;DHT22;6777;51.474;7.218;2022-08-07T10:40:37;26.10;36.40
13412;DHT22;6777;51.474;7.218;2022-08-07T10:43:13;26.00;36.20
13412;DHT22;6777;51.474;7.218;2022-08-07T10:45:46;26.00;36.40
13412;DHT22;6777;51.474;7.218;2022-08-07T10:48:23;26.00;36.70
13412;DHT22;6777;51.474;7.218;2022-08-07T10:51:02;26.00;35.80
13412;DHT22;6777;51.474;7.218;2022-08-07T10:53:39;26.10;36.40
13412;DHT22;6777;51.474;7.218;2022-08-07T10:56:14;26.10;35.60
13412;DHT22;6777;51.474;7.218;2022-08-07T10:59:00;26.20;35.70
13412;DHT22;6777;51.474;7.218;2022-08-07T11:01:38;26.10;35.40
13412;DHT22;6777;51.474;7.218;2022-08-07T11:04:23;26.10;35.60
13412;DHT22;6777;51.474;7.218;2022-08-07T11:07:02;26.20;35.50
13412;DHT22;6777;51.474;7.218;2022-08-07T11:09:38;26.20;35.30
13412;DHT22;6777;51.474;7.218;2022-08-07T11:12:15;26.20;35.30
13412;DHT22;6777;51.474;7.218;2022-08-07T11:14:50;26.20;35.20
13412;DHT22;6777;51.474;7.218;2022-08-07T11:17:24;26.20;34.90
13412;DHT22;6777;51.474;7.218;2022-08-07T11:19:58;26.30;35.00
13412;DHT22;6777;51.474;7.218;2022-08-07T11:22:33;26.20;35.00
13412;DHT22;6777;51.474;7.218;2022-08-07T11:25:08;26.20;35.00
13412;DHT22;6777;51.474;7.218;2022-08-07T11:27:44;26.30;34.80
13412;DHT22;6777;51.474;7.218;2022-08-07T11:30:18;26.30;34.90
13412;DHT22;6777;51.474;7.218;2022-08-07T11:32:55;26.30;34.90
13412;DHT22;6777;51.474;7.218;2022-08-07T11:35:28;26.30;34.70
13412;DHT22;6777;51.474;7.218;2022-08-07T11:38:07;26.30;35.10
13412;DHT22;6777;51.474;7.218;2022-08-07T11:40:45;26.30;34.80
13412;DHT22;6777;51.474;7.218;2022-08-07T11:43:20;26.40;34.50
13412;DHT22;6777;51.474;7.218;2022-08-07T11:46:08;26.40;34.30
13412;DHT22;6777;51.474;7.218;2022-08-07T11:48:53;26.40;33.20
13412;DHT22;6777;51.474;7.218;2022-08-07T11:51:37;26.50;33.80
13412;DHT22;6777;51.474;7.218;2022-08-07T11:54:40;26.40;33.70
13412;DHT22;6777;51.474;7.218;2022-08-07T11:57:32;26.60;33.40
13412;DHT22;6777;51.474;7.218;2022-08-07T12:00:07;26.60;33.50
13412;DHT22;6777;51.474;7.218;2022-08-07T12:02:50;26.60;33.40
13412;DHT22;6777;51.474;7.218;2022-08-07T12:05:43;26.60;33.30
13412;DHT22;6777;51.474;7.218;2022-08-07T12:08:17;26.70;33.60
13412;DHT22;6777;51.474;7.218;2022-08-07T12:10:51;26.70;33.80
13412;DHT22;6777;51.474;7.218;2022-08-07T12:13:26;26.70;32.90
13412;DHT22;6777;51.474;7.218;2022-08-07T12:16:00;26.70;33.30
13412;DHT22;6777;51.474;7.218;2022-08-07T12:18:36;26.80;34.20
13412;DHT22;6777;51.474;7.218;2022-08-07T12:21:15;26.80;33.40
13412;DHT22;6777;51.474;7.218;2022-08-07T12:23:55;26.80;33.30
13412;DHT22;6777;51.474;7.218;2022-08-07T12:26:27;26.90;33.10
13412;DHT22;6777;51.474;7.218;2022-08-07T12:29:07;26.90;33.20
13412;DHT22;6777;51.474;7.218;2022-08-07T12:31:40;26.90;32.80
13412;DHT22;6777;51.474;7.218;2022-08-07T12:34:11;27.00;33.30
13412;DHT22;6777;51.474;7.218;2022-08-07T12:36:38;27.00;33.20
13412;DHT22;6777;51.474;7.218;2022-08-07T12:39:07;27.00;33.20
13412;DHT22;6777;51.474;7.218;2022-08-07T12:41:35;27.00;33.20
13412;DHT22;6777;51.474;7.218;2022-08-07T12:44:06;27.00;33.10
13412;DHT22;6777;51.474;7.218;2022-08-07T12:46:42;27.00;32.80
13412;DHT22;6777;51.474;7.218;2022-08-07T12:49:23;27.10;32.80
13412;DHT22;6777;51.474;7.218;2022-08-07T12:52:05;27.10;32.50
13412;DHT22;6777;51.474;7.218;2022-08-07T12:54:43;27.10;32.40
13412;DHT22;6777;51.474;7.218;2022-08-07T12:57:20;27.10;32.70
13412;DHT22;6777;51.474;7.218;2022-08-07T12:59:52;27.20;32.60
13412;DHT22;6777;51.474;7.218;2022-08-07T13:02:31;27.10;32.40
13412;DHT22;6777;51.474;7.218;2022-08-07T13:05:16;27.20;31.90
13412;DHT22;6777;51.474;7.218;2022-08-07T13:08:05;27.20;32.30
13412;DHT22;6777;51.474;7.218;2022-08-07T13:10:48;27.20;31.90
13412;DHT22;6777;51.474;7.218;2022-08-07T13:13:35;27.30;32.00
13412;DHT22;6777;51.474;7.218;2022-08-07T13:16:14;27.30;31.70
13412;DHT22;6777;51.474;7.218;2022-08-07T13:18:52;27.30;31.70
13412;DHT22;6777;51.474;7.218;2022-08-07T13:21:26;27.30;32.00
13412;DHT22;6777;51.474;7.218;2022-08-07T13:24:01;27.30;31.80
13412;DHT22;6777;51.474;7.218;2022-08-07T13:26:39;27.30;31.70
13412;DHT22;6777;51.474;7.218;2022-08-07T13:29:11;27.30;31.30
13412;DHT22;6777;51.474;7.218;2022-08-07T13:31:51;27.30;31.20
13412;DHT22;6777;51.474;7.218;2022-08-07T13:34:25;27.40;30.80
13412;DHT22;6777;51.474;7.218;2022-08-07T13:37:03;27.30;31.20
13412;DHT22;6777;51.474;7.218;2022-08-07T13:39:38;27.30;31.10
13412;DHT22;6777;51.474;7.218;2022-08-07T13:42:12;27.20;31.30
13412;DHT22;6777;51.474;7.218;2022-08-07T13:44:41;27.30;31.30
13412;DHT22;6777;51.474;7.218;2022-08-07T13:47:12;27.30;31.10
13412;DHT22;6777;51.474;7.218;2022-08-07T13:49:43;27.30;31.00
13412;DHT22;6777;51.474;7.218;2022-08-07T13:52:12;27.30;31.10
13412;DHT22;6777;51.474;7.218;2022-08-07T13:54:40;27.30;30.80
13412;DHT22;6777;51.474;7.218;2022-08-07T13:57:10;27.30;31.00
13412;DHT22;6777;51.474;7.218;2022-08-07T13:59:41;27.30;30.90
13412;DHT22;6777;51.474;7.218;2022-08-07T14:02:12;27.40;31.20
13412;DHT22;6777;51.474;7.218;2022-08-07T14:04:47;27.30;31.00
13412;DHT22;6777;51.474;7.218;2022-08-07T14:07:18;27.40;31.10
13412;DHT22;6777;51.474;7.218;2022-08-07T14:09:47;27.30;31.10
13412;DHT22;6777;51.474;7.218;2022-08-07T14:12:23;27.30;31.20
13412;DHT22;6777;51.474;7.218;2022-08-07T14:14:57;27.30;31.10
13412;DHT22;6777;51.474;7.218;2022-08-07T14:17:29;27.40;31.10
13412;DHT22;6777;51.474;7.218;2022-08-07T14:20:05;27.40;31.10
13412;DHT22;6777;51.474;7.218;2022-08-07T14:22:37;27.40;30.80
13412;DHT22;6777;51.474;7.218;2022-08-07T14:25:11;27.40;31.10
13412;DHT22;6777;51.474;7.218;2022-08-07T14:27:44;27.40;30.80
13412;DHT22;6777;51.474;7.218;2022-08-07T14:30:13;27.40;30.80
13412;DHT22;6777;51.474;7.218;2022-08-07T14:32:44;27.50;30.70
13412;DHT22;6777;51.474;7.218;2022-08-07T14:35:18;27.40;30.30
13412;DHT22;6777;51.474;7.218;2022-08-07T14:37:48;28.10;30.60
13412;DHT22;6777;51.474;7.218;2022-08-07T14:40:19;27.40;30.50
13412;DHT22;6777;51.474;7.218;2022-08-07T14:42:54;27.40;30.50
13412;DHT22;6777;51.474;7.218;2022-08-07T14:45:25;27.40;30.30
13412;DHT22;6777;51.474;7.218;2022-08-07T14:47:56;27.40;30.40
13412;DHT22;6777;51.474;7.218;2022-08-07T14:50:25;27.40;30.40
13412;DHT22;6777;51.474;7.218;2022-08-07T14:52:53;27.50;30.50
13412;DHT22;6777;51.474;7.218;2022-08-07T14:55:25;27.40;30.10
13412;DHT22;6777;51.474;7.218;2022-08-07T14:57:54;27.40;30.40
13412;DHT22;6777;51.474;7.218;2022-08-07T15:00:27;27.40;30.30
13412;DHT22;6777;51.474;7.218;2022-08-07T15:02:58;27.40;30.10
13412;DHT22;6777;51.474;7.218;2022-08-07T15:05:28;27.40;30.00
13412;DHT22;6777;51.474;7.218;2022-08-07T15:07:56;27.40;30.10
13412;DHT22;6777;51.474;7.218;2022-08-07T15:10:25;27.50;30.30
13412;DHT22;6777;51.474;7.218;2022-08-07T15:12:56;27.40;30.30
13412;DHT22;6777;51.474;7.218;2022-08-07T15:15:34;27.40;30.20
13412;DHT22;6777;51.474;7.218;2022-08-07T15:18:09;27.50;30.10
13412;DHT22;6777;51.474;7.218;2022-08-07T15:20:37;27.50;30.20
13412;DHT22;6777;51.474;7.218;2022-08-07T15:23:09;27.50;30.20
13412;DHT22;6777;51.474;7.218;2022-08-07T15:25:39;27.50;30.10
13412;DHT22;6777;51.474;7.218;2022-08-07T15:28:15;27.50;30.20
13412;DHT22;6777;51.474;7.218;2022-08-07T15:30:45;27.50;30.20
13412;DHT22;6777;51.474;7.218;2022-08-07T15:33:17;27.50;30.20
13412;DHT22;6777;51.474;7.218;2022-08-07T15:35:49;27.50;30.00
13412;DHT22;6777;51.474;7.218;2022-08-07T15:38:18;27.50;30.10
13412;DHT22;6777;51.474;7.218;2022-08-07T15:40:50;27.50;30.20
13412;DHT22;6777;51.474;7.218;2022-08-07T15:43:20;27.50;30.30
13412;DHT22;6777;51.474;7.218;2022-08-07T15:45:49;27.50;30.30
13412;DHT22;6777;51.474;7.218;2022-08-07T15:48:23;27.50;30.40
13412;DHT22;6777;51.474;7.218;2022-08-07T15:50:55;27.50;30.20
13412;DHT22;6777;51.474;7.218;2022-08-07T15:53:26;27.50;30.10
13412;DHT22;6777;51.474;7.218;2022-08-07T15:55:59;27.50;30.10
13412;DHT22;6777;51.474;7.218;2022-08-07T15:58:34;27.60;30.30
13412;DHT22;6777;51.474;7.218;2022-08-07T16:01:06;27.50;30.00
13412;DHT22;6777;51.474;7.218;2022-08-07T16:03:43;27.60;30.00
13412;DHT22;6777;51.474;7.218;2022-08-07T16:06:11;27.60;29.80
13412;DHT22;6777;51.474;7.218;2022-08-07T16:08:40;27.60;30.00
13412;DHT22;6777;51.474;7.218;2022-08-07T16:11:15;27.60;30.00
13412;DHT22;6777;51.474;7.218;2022-08-07T16:13:59;27.50;29.90
13412;DHT22;6777;51.474;7.218;2022-08-07T16:16:39;27.50;30.00
13412;DHT22;6777;51.474;7.218;2022-08-07T16:22:57;27.50;30.00
13412;DHT22;6777;51.474;7.218;2022-08-07T16:25:38;27.60;30.00
13412;DHT22;6777;51.474;7.218;2022-08-07T16:28:25;27.50;30.00